KBYY

Bay City Regional Airport

Bay City, Texas, USA
METAR KBYY 202355Z AUTO 18011KT 10SM SCT029 31/25 A2996 RMK AO2 T03180245
Observed Flight Rules
Aug-20 @ 23:55 UTC (12 minutes ago) Visual Flight Rules
Wind Visibility Clouds
180° at 11 knots 10 miles
  • Scattered at 2,900' AGL
Temperatures Readings
Current 32°C / 90°F
Dewpoint 25°C / 77°F
Humidity 67%
Altimeter 29.96" Hg
Pressure 1015 hPa
Elevation 14
METAR KBYY 202355Z AUTO 18011KT 10SM SCT029 31/25 A2996 RMK AO2 T03180245
Observed Flight Rules
Aug-20 @ 23:55 UTC
(12 minutes ago)
VFR
Wind Visibility
180° at 11 knots 10 miles
Clouds
  • Scattered at 2,900' AGL
Temperature Dewpoint
32°C / 90°F 25°C / 77°F
Humidity Altimeter Pressure
67% 29.96" Hg 1015 hPa